createdAt,value
2023-01-05T00:13:42.854Z,99.0
2023-01-05T00:27:42.873Z,99.0
2023-01-05T00:41:42.863Z,99.0
2023-01-05T00:55:42.967Z,99.0
2023-01-05T01:09:42.968Z,99.0
2023-01-05T01:17:04.572Z,99.0
2023-01-05T01:34:58.427Z,99.0
2023-01-05T01:48:58.014Z,99.0
2023-01-05T02:02:58.180Z,99.0
2023-01-05T02:16:58.388Z,99.0
2023-01-05T02:31:58.348Z,99.0
2023-01-05T02:45:58.543Z,99.0
2023-01-05T02:59:58.555Z,99.0
2023-01-05T03:13:58.621Z,99.0
2023-01-05T03:27:58.597Z,99.0
2023-01-05T03:41:58.613Z,99.0
2023-01-05T03:55:58.601Z,99.0
2023-01-05T04:09:58.696Z,99.0
2023-01-05T04:23:58.742Z,99.0
2023-01-05T04:37:58.824Z,99.0
2023-01-05T04:51:58.846Z,99.0
2023-01-05T05:05:58.838Z,99.0
2023-01-05T05:19:58.871Z,99.0
2023-01-05T05:33:58.878Z,99.0
2023-01-05T05:47:58.955Z,99.0
2023-01-05T06:01:59.107Z,99.0
2023-01-05T06:15:58.997Z,99.0
2023-01-05T06:29:58.970Z,99.0
2023-01-05T06:43:58.987Z,99.0
2023-01-05T06:58:59.009Z,99.0
2023-01-05T07:13:59.052Z,99.0
2023-01-05T07:28:59.056Z,99.0
2023-01-05T07:43:59.077Z,99.0
2023-01-05T07:58:59.069Z,99.0
2023-01-05T08:13:59.078Z,99.0
2023-01-05T08:28:59.137Z,99.0
2023-01-05T08:43:59.136Z,99.0
2023-01-05T08:58:59.212Z,98.0
2023-01-05T09:13:59.327Z,97.0
2023-01-05T09:28:59.321Z,96.0
2023-01-05T09:43:59.333Z,94.0
2023-01-05T09:58:59.321Z,93.0
2023-01-05T10:13:59.337Z,90.0
2023-01-05T10:27:24.013Z,89.0
2023-01-05T10:41:56.990Z,89.0
2023-01-05T10:56:56.972Z,88.0
2023-01-05T11:11:57.220Z,86.0
2023-01-05T11:26:57.352Z,85.0
2023-01-05T11:41:57.474Z,85.0
2023-01-05T11:56:57.570Z,85.0
2023-01-05T12:11:57.503Z,83.0
2023-01-05T12:26:57.533Z,84.0
2023-01-05T12:41:57.630Z,84.0
2023-01-05T12:56:57.797Z,83.0
2023-01-05T13:11:57.630Z,82.0
2023-01-05T13:26:57.715Z,83.0
2023-01-05T13:41:57.703Z,85.0
2023-01-05T13:56:57.721Z,86.0
2023-01-05T14:11:57.867Z,88.0
2023-01-05T14:26:57.919Z,89.0
2023-01-05T14:41:57.913Z,90.0
2023-01-05T14:56:58.049Z,90.0
2023-01-05T15:11:58.061Z,90.0
2023-01-05T15:26:58.079Z,91.0
2023-01-05T15:41:58.123Z,91.0
2023-01-05T15:56:58.109Z,92.0
2023-01-05T16:11:58.192Z,93.0
2023-01-05T16:25:58.129Z,93.0
2023-01-05T16:39:58.181Z,94.0
2023-01-05T16:53:58.234Z,94.0
2023-01-05T17:07:58.354Z,94.0
2023-01-05T17:21:58.392Z,95.0
2023-01-05T17:35:58.526Z,95.0
2023-01-05T17:49:58.511Z,96.0
2023-01-05T18:03:58.588Z,97.0
2023-01-05T18:17:58.690Z,97.0
2023-01-05T18:31:58.666Z,97.0
2023-01-05T18:45:58.717Z,97.0
2023-01-05T18:59:58.690Z,97.0
2023-01-05T19:13:58.716Z,97.0
2023-01-05T19:27:59.987Z,97.0
2023-01-05T19:41:58.797Z,97.0
2023-01-05T19:56:02.740Z,97.0
2023-01-05T20:09:59.095Z,97.0
2023-01-05T20:23:58.888Z,97.0
2023-01-05T20:37:58.867Z,97.0
2023-01-05T20:51:59.008Z,97.0
2023-01-05T21:05:59.012Z,96.0
2023-01-05T21:19:59.060Z,96.0
2023-01-05T21:33:59.067Z,96.0
2023-01-05T21:47:59.011Z,96.0
2023-01-05T22:01:59.057Z,96.0
2023-01-05T22:15:59.136Z,96.0
2023-01-05T22:29:59.146Z,95.0
2023-01-05T22:43:59.124Z,96.0
2023-01-05T22:57:59.157Z,96.0
2023-01-05T23:11:59.317Z,96.0
2023-01-05T23:25:59.493Z,96.0
2023-01-05T23:39:59.381Z,96.0
2023-01-05T23:53:59.346Z,96.0
